createdAt,value
2022-12-15T00:01:00.007Z,44.54
2022-12-15T00:02:01.877Z,44.49
2022-12-15T00:03:03.922Z,44.47
2022-12-15T00:04:05.949Z,44.48
2022-12-15T00:05:07.819Z,44.49
2022-12-15T00:06:10.443Z,44.44
2022-12-15T00:07:12.266Z,44.42
2022-12-15T00:08:14.116Z,44.45
2022-12-15T00:09:18.670Z,44.50
2022-12-15T00:10:19.674Z,44.49
2022-12-15T00:11:21.476Z,44.51
2022-12-15T00:12:23.286Z,44.56
2022-12-15T00:13:25.110Z,44.51
2022-12-15T00:14:26.977Z,44.43
2022-12-15T00:15:28.782Z,44.25
2022-12-15T00:16:32.440Z,44.22
2022-12-15T00:17:34.376Z,44.28
2022-12-15T00:18:36.196Z,44.28
2022-12-15T00:19:38.053Z,44.26
2022-12-15T00:20:39.858Z,44.25
2022-12-15T00:21:41.667Z,44.23
2022-12-15T00:22:43.479Z,44.26
2022-12-15T00:23:45.368Z,44.22
2022-12-15T00:24:49.799Z,44.24
2022-12-15T00:25:50.847Z,44.23
2022-12-15T00:26:52.656Z,44.24
2022-12-15T00:27:54.492Z,44.30
2022-12-15T00:28:56.333Z,44.38
2022-12-15T00:29:58.182Z,44.38
2022-12-15T00:31:02.571Z,44.41
2022-12-15T00:32:03.756Z,44.37
2022-12-15T00:33:05.574Z,44.37
2022-12-15T00:34:07.397Z,44.40
2022-12-15T00:35:09.247Z,44.49
2022-12-15T00:36:11.465Z,44.44
2022-12-15T00:37:13.264Z,44.47
2022-12-15T00:38:15.068Z,44.52
2022-12-15T00:39:16.989Z,44.57
2022-12-15T00:40:18.950Z,44.54
2022-12-15T00:41:20.747Z,44.49
2022-12-15T00:42:22.561Z,44.58
2022-12-15T00:43:24.371Z,44.60
2022-12-15T00:44:26.187Z,44.58
2022-12-15T00:45:28.040Z,44.60
2022-12-15T00:46:29.916Z,44.65
2022-12-15T00:47:31.757Z,44.68
2022-12-15T00:48:33.582Z,44.68
2022-12-15T00:49:35.395Z,44.67
2022-12-15T00:50:37.242Z,44.70
2022-12-15T00:51:39.053Z,44.70
2022-12-15T00:52:40.864Z,44.70
2022-12-15T00:53:42.708Z,44.71
2022-12-15T00:54:44.599Z,44.71
2022-12-15T00:55:46.435Z,44.66
2022-12-15T00:56:48.237Z,44.59
2022-12-15T00:57:50.069Z,44.55
2022-12-15T00:58:51.878Z,44.55
2022-12-15T00:59:53.709Z,44.60
2022-12-15T01:00:55.655Z,44.57
2022-12-15T01:01:57.561Z,44.55
2022-12-15T01:02:59.635Z,44.56
2022-12-15T01:04:01.559Z,44.57
2022-12-15T01:05:03.400Z,44.55
2022-12-15T01:06:05.473Z,44.51
2022-12-15T01:07:07.293Z,44.53
2022-12-15T01:08:09.100Z,44.56
2022-12-15T01:09:10.927Z,44.42
2022-12-15T01:10:13.053Z,44.38
2022-12-15T01:11:14.929Z,44.36
2022-12-15T01:12:16.724Z,44.39
2022-12-15T01:13:18.540Z,44.42
2022-12-15T01:14:20.364Z,44.43
2022-12-15T01:15:22.173Z,44.46
2022-12-15T01:16:24.118Z,44.45
2022-12-15T01:17:26.012Z,44.44
2022-12-15T01:18:27.801Z,44.42
2022-12-15T01:19:29.627Z,44.43
2022-12-15T01:20:31.557Z,44.34
2022-12-15T01:21:33.433Z,44.27
2022-12-15T01:22:35.255Z,44.24
2022-12-15T01:23:37.060Z,44.35
2022-12-15T01:24:38.874Z,44.38
2022-12-15T01:25:40.860Z,44.42
2022-12-15T01:26:42.706Z,44.42
2022-12-15T01:27:44.515Z,44.35
2022-12-15T01:28:46.324Z,44.38
2022-12-15T01:29:48.156Z,44.47
2022-12-15T01:30:50.264Z,44.49
2022-12-15T01:31:52.161Z,44.45
2022-12-15T01:32:53.927Z,44.46
2022-12-15T01:33:55.751Z,44.52
2022-12-15T01:34:57.559Z,44.56
2022-12-15T01:35:59.362Z,44.61
2022-12-15T01:37:01.314Z,44.62
2022-12-15T01:38:03.139Z,44.62
2022-12-15T01:39:04.972Z,44.63
2022-12-15T01:40:07.086Z,44.62
2022-12-15T01:41:08.979Z,44.59
2022-12-15T01:42:10.888Z,44.53
2022-12-15T01:43:12.693Z,44.55
2022-12-15T01:44:14.512Z,44.61
2022-12-15T01:45:16.320Z,44.72
2022-12-15T01:46:18.283Z,44.80
2022-12-15T01:47:20.190Z,44.71
2022-12-15T01:48:22.003Z,44.61
2022-12-15T01:49:23.828Z,44.61
2022-12-15T01:50:25.623Z,44.61
2022-12-15T01:51:27.434Z,44.58
2022-12-15T01:52:29.299Z,44.54
2022-12-15T01:53:31.490Z,44.56
2022-12-15T01:54:33.729Z,44.62
2022-12-15T01:55:35.752Z,44.67
2022-12-15T01:56:38.183Z,44.66
2022-12-15T01:57:40.101Z,44.66
2022-12-15T01:58:41.920Z,44.71
2022-12-15T01:59:43.735Z,44.82
2022-12-15T02:00:45.775Z,44.89
2022-12-15T02:01:49.803Z,44.93
2022-12-15T02:02:51.435Z,44.99
2022-12-15T02:03:53.339Z,44.94
2022-12-15T02:04:55.148Z,44.87
2022-12-15T02:05:56.956Z,44.76
2022-12-15T02:06:58.796Z,44.73
2022-12-15T02:08:00.628Z,44.77
2022-12-15T02:09:02.446Z,44.79
2022-12-15T02:10:04.248Z,44.80
2022-12-15T02:11:06.057Z,44.86
2022-12-15T02:12:08.016Z,44.91
2022-12-15T02:13:09.859Z,44.94
2022-12-15T02:14:11.667Z,44.93
2022-12-15T02:15:13.473Z,44.91
2022-12-15T02:16:15.293Z,44.84
2022-12-15T02:17:17.099Z,44.84
2022-12-15T02:18:18.983Z,44.90
2022-12-15T02:19:20.789Z,44.86
2022-12-15T02:20:22.701Z,44.83
2022-12-15T02:21:24.511Z,44.74
2022-12-15T02:22:26.329Z,44.70
2022-12-15T02:23:28.426Z,44.69
2022-12-15T02:24:30.501Z,44.70
2022-12-15T02:25:32.312Z,44.70
2022-12-15T02:26:34.204Z,44.74
2022-12-15T02:27:36.036Z,44.83
2022-12-15T02:28:37.893Z,44.83
2022-12-15T02:29:39.704Z,44.78
2022-12-15T02:30:41.517Z,44.65
2022-12-15T02:31:43.375Z,44.58
2022-12-15T02:32:45.159Z,44.59
2022-12-15T02:33:47.043Z,44.59
2022-12-15T02:34:48.855Z,44.57
2022-12-15T02:35:50.673Z,44.53
2022-12-15T02:36:52.702Z,44.52
2022-12-15T02:37:54.847Z,44.47
2022-12-15T02:38:56.716Z,44.48
2022-12-15T02:39:58.532Z,44.50
2022-12-15T02:41:00.325Z,44.43
2022-12-15T02:42:02.143Z,44.42
2022-12-15T02:43:03.997Z,44.38
2022-12-15T02:44:05.855Z,44.37
2022-12-15T02:45:07.679Z,44.36
2022-12-15T02:46:09.632Z,44.42
2022-12-15T02:47:11.474Z,44.44
2022-12-15T02:48:13.278Z,44.37
2022-12-15T02:49:15.148Z,44.33
2022-12-15T02:50:16.953Z,44.36
2022-12-15T02:51:18.761Z,44.42
2022-12-15T02:52:20.558Z,44.42
2022-12-15T02:53:22.375Z,44.47
2022-12-15T02:54:24.240Z,44.48
2022-12-15T02:55:26.049Z,44.52
2022-12-15T02:56:28.059Z,44.58
2022-12-15T02:57:29.883Z,44.56
2022-12-15T02:58:31.710Z,44.52
2022-12-15T02:59:33.556Z,44.55
2022-12-15T03:00:35.453Z,44.58
2022-12-15T03:01:37.447Z,44.54
2022-12-15T03:02:39.460Z,44.44
2022-12-15T03:03:41.352Z,44.47
2022-12-15T03:04:43.254Z,44.52
2022-12-15T03:05:45.083Z,44.50
2022-12-15T03:06:46.893Z,44.47
2022-12-15T03:07:49.786Z,44.40
2022-12-15T03:08:51.669Z,44.36
2022-12-15T03:09:53.547Z,44.34
2022-12-15T03:10:55.444Z,44.30
2022-12-15T03:11:57.253Z,44.31
2022-12-15T03:12:59.071Z,44.33
2022-12-15T03:14:01.244Z,44.30
2022-12-15T03:15:03.117Z,44.31
2022-12-15T03:16:05.121Z,44.38
2022-12-15T03:17:07.064Z,44.39
2022-12-15T03:18:08.897Z,44.48
2022-12-15T03:19:10.695Z,44.54
2022-12-15T03:20:12.560Z,44.60
2022-12-15T03:21:14.355Z,44.65
2022-12-15T03:22:16.165Z,44.78
2022-12-15T03:23:17.992Z,44.79
2022-12-15T03:24:19.779Z,44.80
2022-12-15T03:25:21.622Z,44.81
2022-12-15T03:26:23.460Z,44.88
2022-12-15T03:27:25.251Z,44.96
2022-12-15T03:28:27.080Z,44.95
2022-12-15T03:29:29.075Z,44.92
2022-12-15T03:30:31.097Z,44.83
2022-12-15T03:31:33.110Z,44.80
2022-12-15T03:32:34.993Z,44.76
2022-12-15T03:33:36.797Z,44.84
2022-12-15T03:34:38.625Z,44.78
2022-12-15T03:35:40.470Z,44.78
2022-12-15T03:36:42.263Z,44.81
2022-12-15T03:37:44.063Z,44.79
2022-12-15T03:38:45.882Z,44.82
2022-12-15T03:39:47.764Z,44.76
2022-12-15T03:40:49.666Z,44.77
2022-12-15T03:41:51.466Z,44.81
2022-12-15T03:42:53.261Z,44.73
2022-12-15T03:43:55.102Z,44.79
2022-12-15T03:44:56.965Z,44.76
2022-12-15T03:45:58.894Z,44.83
2022-12-15T03:47:03.506Z,44.88
2022-12-15T03:48:04.367Z,44.93
2022-12-15T03:49:06.165Z,44.89
2022-12-15T03:50:08.278Z,44.90
2022-12-15T03:51:10.122Z,44.83
2022-12-15T03:52:11.941Z,44.83
2022-12-15T03:53:13.773Z,44.88
2022-12-15T03:54:15.582Z,44.86
2022-12-15T03:55:17.414Z,44.81
2022-12-15T03:56:19.380Z,44.88
2022-12-15T03:57:21.194Z,44.84
2022-12-15T03:58:22.997Z,44.88
2022-12-15T03:59:25.527Z,44.87
2022-12-15T04:00:27.428Z,44.89
2022-12-15T04:01:29.512Z,44.97
2022-12-15T04:02:31.491Z,45.02
2022-12-15T04:03:34.010Z,45.04
2022-12-15T04:04:36.188Z,45.01
2022-12-15T04:05:38.014Z,45.11
2022-12-15T04:06:39.959Z,45.15
2022-12-15T04:07:41.790Z,45.07
2022-12-15T04:08:43.600Z,45.04
2022-12-15T04:09:45.423Z,45.06
2022-12-15T04:10:47.441Z,45.07
2022-12-15T04:11:49.278Z,45.07
2022-12-15T04:12:51.101Z,45.06
2022-12-15T04:13:52.890Z,45.05
2022-12-15T04:14:54.674Z,45.02
2022-12-15T04:15:56.591Z,45.07
2022-12-15T04:16:58.463Z,45.00
2022-12-15T04:18:00.272Z,45.00
2022-12-15T04:19:02.084Z,45.01
2022-12-15T04:20:03.902Z,45.02
2022-12-15T04:21:05.682Z,45.01
2022-12-15T04:22:07.547Z,45.02
2022-12-15T04:23:09.361Z,45.04
2022-12-15T04:24:11.149Z,45.07
2022-12-15T04:25:12.972Z,45.09
2022-12-15T04:26:14.779Z,45.10
2022-12-15T04:27:16.650Z,45.12
2022-12-15T04:28:18.467Z,45.07
2022-12-15T04:29:20.275Z,45.01
2022-12-15T04:30:22.091Z,44.96
2022-12-15T04:31:24.052Z,44.90
2022-12-15T04:32:25.933Z,44.94
2022-12-15T04:33:30.758Z,44.92
2022-12-15T04:34:31.336Z,44.85
2022-12-15T04:35:33.124Z,44.84
2022-12-15T04:36:34.945Z,44.84
2022-12-15T04:37:36.807Z,44.87
2022-12-15T04:38:41.478Z,44.83
2022-12-15T04:39:42.247Z,44.85
2022-12-15T04:40:44.055Z,44.83
2022-12-15T04:41:45.875Z,44.80
2022-12-15T04:42:47.741Z,44.82
2022-12-15T04:43:49.549Z,44.84
2022-12-15T04:44:51.353Z,44.98
2022-12-15T04:45:53.201Z,45.02
2022-12-15T04:46:55.222Z,45.13
2022-12-15T04:47:57.061Z,45.42
2022-12-15T04:48:58.871Z,45.17
2022-12-15T04:50:00.676Z,45.18
2022-12-15T04:51:02.501Z,45.29
2022-12-15T04:52:04.319Z,45.42
2022-12-15T04:53:06.176Z,45.36
2022-12-15T04:54:07.990Z,45.30
2022-12-15T04:55:09.807Z,45.26
2022-12-15T04:56:18.012Z,45.33
2022-12-15T04:57:15.446Z,45.41
2022-12-15T04:58:17.307Z,45.39
2022-12-15T04:59:19.117Z,45.37
2022-12-15T05:00:20.932Z,45.37
2022-12-15T05:01:22.891Z,45.36
2022-12-15T05:02:25.155Z,45.38
2022-12-15T05:03:27.050Z,45.36
2022-12-15T05:04:28.985Z,45.35
2022-12-15T05:05:30.768Z,45.36
2022-12-15T05:06:32.686Z,45.36
2022-12-15T05:07:34.513Z,45.33
2022-12-15T05:08:36.360Z,45.39
2022-12-15T05:09:38.160Z,45.43
2022-12-15T05:10:40.171Z,45.46
2022-12-15T05:11:42.015Z,45.52
2022-12-15T05:12:43.816Z,45.58
2022-12-15T05:13:45.662Z,45.66
2022-12-15T05:14:49.543Z,45.68
2022-12-15T05:15:51.184Z,45.61
2022-12-15T05:16:53.152Z,45.60
2022-12-15T05:17:55.065Z,45.61
2022-12-15T05:18:57.171Z,45.64
2022-12-15T05:19:58.992Z,45.67
2022-12-15T05:21:00.802Z,45.71
2022-12-15T05:22:02.606Z,45.69
2022-12-15T05:23:04.434Z,45.57
2022-12-15T05:24:06.307Z,45.57
2022-12-15T05:25:08.108Z,45.56
2022-12-15T05:26:10.526Z,45.60
2022-12-15T05:27:12.335Z,45.66
2022-12-15T05:28:14.135Z,45.67
2022-12-15T05:29:15.969Z,45.72
2022-12-15T05:30:17.903Z,45.76
2022-12-15T05:31:19.789Z,45.70
2022-12-15T05:32:21.705Z,45.63
2022-12-15T05:33:23.804Z,45.68
2022-12-15T05:34:25.654Z,45.77
2022-12-15T05:35:27.461Z,45.82
2022-12-15T05:36:29.509Z,45.85
2022-12-15T05:37:31.340Z,45.82
2022-12-15T05:38:33.132Z,45.79
2022-12-15T05:39:35.059Z,45.78
2022-12-15T05:40:37.210Z,45.41
2022-12-15T05:41:39.050Z,45.41
2022-12-15T05:42:40.872Z,45.69
2022-12-15T05:43:42.707Z,45.61
2022-12-15T05:44:44.580Z,45.58
2022-12-15T05:45:46.376Z,45.89
2022-12-15T05:46:48.297Z,45.89
2022-12-15T05:47:50.224Z,45.63
2022-12-15T05:48:52.376Z,45.66
2022-12-15T05:49:54.242Z,45.61
2022-12-15T05:50:56.149Z,45.62
2022-12-15T05:51:57.964Z,45.60
2022-12-15T05:52:59.800Z,45.65
2022-12-15T05:54:01.768Z,45.62
2022-12-15T05:55:03.590Z,45.54
2022-12-15T05:56:05.497Z,45.49
2022-12-15T05:57:07.387Z,45.45
2022-12-15T05:58:09.200Z,45.51
2022-12-15T05:59:11.025Z,45.47
2022-12-15T06:00:13.602Z,45.54
2022-12-15T06:01:15.412Z,45.59
2022-12-15T06:02:17.290Z,45.56
2022-12-15T06:03:19.128Z,45.54
2022-12-15T06:04:22.299Z,45.55
2022-12-15T06:05:24.203Z,45.51
2022-12-15T06:06:26.033Z,45.59
2022-12-15T06:07:30.339Z,45.59
2022-12-15T06:08:32.180Z,45.41
2022-12-15T06:09:34.003Z,45.44
2022-12-15T06:10:35.888Z,45.48
2022-12-15T06:11:37.805Z,45.50
2022-12-15T06:12:39.630Z,45.49
2022-12-15T06:13:41.455Z,45.47
2022-12-15T06:14:43.273Z,45.46
2022-12-15T06:15:45.173Z,45.41
2022-12-15T06:16:50.783Z,45.43
2022-12-15T06:17:50.699Z,45.40
2022-12-15T06:18:52.519Z,45.45
2022-12-15T06:19:55.778Z,45.54
2022-12-15T06:20:57.635Z,45.59
2022-12-15T06:21:59.466Z,45.58
2022-12-15T06:23:01.264Z,45.53
2022-12-15T06:24:03.098Z,45.51
2022-12-15T06:25:04.907Z,45.55
2022-12-15T06:26:06.862Z,45.56
2022-12-15T06:27:08.680Z,45.59
2022-12-15T06:28:10.490Z,45.57
2022-12-15T06:29:12.297Z,45.58
2022-12-15T06:30:14.354Z,45.54
2022-12-15T06:31:16.259Z,45.53
2022-12-15T06:32:18.042Z,45.53
2022-12-15T06:33:19.866Z,45.52
2022-12-15T06:34:21.730Z,45.47
2022-12-15T06:35:23.889Z,45.53
2022-12-15T06:36:25.742Z,45.55
2022-12-15T06:37:27.573Z,45.59
2022-12-15T06:38:29.397Z,45.61
2022-12-15T06:39:31.211Z,45.62
2022-12-15T06:40:37.710Z,45.66
2022-12-15T06:41:36.821Z,45.66
2022-12-15T06:42:38.640Z,45.69
2022-12-15T06:43:40.443Z,45.73
2022-12-15T06:44:42.257Z,45.77
2022-12-15T06:45:44.073Z,45.76
2022-12-15T06:46:47.780Z,45.72
2022-12-15T06:47:49.629Z,45.73
2022-12-15T06:48:51.448Z,45.71
2022-12-15T06:49:53.238Z,45.69
2022-12-15T06:50:55.476Z,45.66
2022-12-15T06:51:57.341Z,45.62
2022-12-15T06:52:59.135Z,45.59
2022-12-15T06:54:00.947Z,45.58
2022-12-15T06:55:02.769Z,45.60
2022-12-15T06:56:04.700Z,45.60
2022-12-15T06:57:06.602Z,45.58
2022-12-15T06:58:08.446Z,45.56
2022-12-15T06:59:10.273Z,45.58
2022-12-15T07:00:12.314Z,45.52
2022-12-15T07:01:14.136Z,45.50
2022-12-15T07:02:16.182Z,45.44
2022-12-15T07:03:18.286Z,45.45
2022-12-15T07:04:20.268Z,45.46
2022-12-15T07:05:22.203Z,45.51
2022-12-15T07:06:24.265Z,45.51
2022-12-15T07:07:26.146Z,45.59
2022-12-15T07:08:32.180Z,45.64
2022-12-15T07:09:31.598Z,45.65
2022-12-15T07:10:33.590Z,45.67
2022-12-15T07:11:35.473Z,45.71
2022-12-15T07:12:37.289Z,45.75
2022-12-15T07:13:39.074Z,45.81
2022-12-15T07:14:40.938Z,45.82
2022-12-15T07:15:42.816Z,45.81
2022-12-15T07:16:44.812Z,45.84
2022-12-15T07:17:46.789Z,45.85
2022-12-15T07:18:48.626Z,45.85
2022-12-15T07:19:50.469Z,45.86
2022-12-15T07:20:52.492Z,45.90
2022-12-15T07:21:54.419Z,45.85
2022-12-15T07:22:56.268Z,45.85
2022-12-15T07:23:58.706Z,45.83
2022-12-15T07:25:01.290Z,45.88
2022-12-15T07:26:06.651Z,45.96
2022-12-15T07:27:06.745Z,46.00
2022-12-15T07:28:08.590Z,46.03
2022-12-15T07:29:10.408Z,46.00
2022-12-15T07:30:12.351Z,46.05
2022-12-15T07:31:14.217Z,46.16
2022-12-15T07:32:15.989Z,46.18
2022-12-15T07:33:17.840Z,46.19
2022-12-15T07:34:19.666Z,46.23
2022-12-15T07:35:21.460Z,46.23
2022-12-15T07:36:23.277Z,46.22
2022-12-15T07:37:25.197Z,46.25
2022-12-15T07:38:27.067Z,46.26
2022-12-15T07:39:28.910Z,46.27
2022-12-15T07:40:30.741Z,46.30
2022-12-15T07:41:32.547Z,46.20
2022-12-15T07:42:34.373Z,46.19
2022-12-15T07:43:36.922Z,46.18
2022-12-15T07:44:39.151Z,46.21
2022-12-15T07:45:41.048Z,46.17
2022-12-15T07:46:43.142Z,46.24
2022-12-15T07:47:44.970Z,46.34
2022-12-15T07:48:50.170Z,46.43
2022-12-15T07:49:50.467Z,46.51
2022-12-15T07:50:52.380Z,46.52
2022-12-15T07:51:54.208Z,46.51
2022-12-15T07:52:56.241Z,46.58
2022-12-15T07:53:58.095Z,46.55
2022-12-15T07:54:59.956Z,46.65
2022-12-15T07:56:10.071Z,46.70
2022-12-15T07:57:05.403Z,46.66
2022-12-15T07:58:07.418Z,46.76
2022-12-15T07:59:09.304Z,46.79
2022-12-15T08:00:11.233Z,46.80
2022-12-15T08:01:13.098Z,46.91
2022-12-15T08:02:15.212Z,46.90
2022-12-15T08:03:19.515Z,46.99
2022-12-15T08:04:21.427Z,47.00
2022-12-15T08:05:23.207Z,47.09
2022-12-15T08:06:25.028Z,47.10
2022-12-15T08:07:26.852Z,47.12
2022-12-15T08:08:29.209Z,47.16
2022-12-15T08:09:31.381Z,47.19
2022-12-15T08:10:33.607Z,47.14
2022-12-15T08:11:35.466Z,47.06
2022-12-15T08:12:37.239Z,47.06
2022-12-15T08:14:42.721Z,47.12
2022-12-15T08:15:44.550Z,47.13
2022-12-15T08:16:46.602Z,47.11
2022-12-15T08:17:48.506Z,47.21
2022-12-15T08:18:50.307Z,47.28
2022-12-15T08:19:58.527Z,47.31
2022-12-15T08:20:56.387Z,47.28
2022-12-15T08:21:58.210Z,47.26
2022-12-15T08:23:00.043Z,47.21
2022-12-15T08:24:01.911Z,47.20
2022-12-15T08:25:03.751Z,47.07
2022-12-15T08:26:05.642Z,47.06
2022-12-15T08:27:07.449Z,47.16
2022-12-15T08:28:09.262Z,47.15
2022-12-15T08:29:49.360Z,47.14
2022-12-15T08:30:14.792Z,47.10
2022-12-15T08:31:16.749Z,47.08
2022-12-15T08:32:18.821Z,47.12
2022-12-15T08:33:20.768Z,47.15
2022-12-15T08:34:22.556Z,47.11
2022-12-15T08:35:54.565Z,47.16
2022-12-15T08:36:28.146Z,47.19
2022-12-15T08:37:29.959Z,47.17
2022-12-15T08:38:31.756Z,47.16
2022-12-15T08:39:33.670Z,47.13
2022-12-15T08:40:35.544Z,47.14
2022-12-15T08:41:37.349Z,47.16
2022-12-15T08:42:39.180Z,47.22
2022-12-15T08:43:47.668Z,47.30
2022-12-15T08:44:44.660Z,47.32
2022-12-15T08:45:46.591Z,47.31
2022-12-15T08:46:48.502Z,47.25
2022-12-15T08:47:50.328Z,47.29
2022-12-15T08:48:52.160Z,47.33
2022-12-15T08:49:53.977Z,47.40
2022-12-15T08:50:55.824Z,47.46
2022-12-15T08:51:57.952Z,47.53
2022-12-15T08:53:29.070Z,47.53
2022-12-15T08:54:03.421Z,47.47
2022-12-15T08:55:05.300Z,47.40
2022-12-15T08:56:07.789Z,47.38
2022-12-15T08:57:09.606Z,47.39
2022-12-15T08:58:11.417Z,47.43
2022-12-15T08:59:13.276Z,47.39
2022-12-15T09:00:15.099Z,47.40
2022-12-15T09:01:22.480Z,47.40
2022-12-15T09:02:20.672Z,47.40
2022-12-15T09:03:22.549Z,47.42
2022-12-15T09:04:24.496Z,47.14
2022-12-15T09:05:26.396Z,47.14
2022-12-15T09:06:28.278Z,47.46
2022-12-15T09:07:30.136Z,47.43
2022-12-15T09:08:31.932Z,47.38
2022-12-15T09:09:33.747Z,47.34
2022-12-15T09:10:35.780Z,47.31
2022-12-15T09:11:37.639Z,47.39
2022-12-15T09:12:39.516Z,47.52
2022-12-15T09:13:41.294Z,47.60
2022-12-15T09:14:43.092Z,47.64
2022-12-15T09:16:08.735Z,47.62
2022-12-15T09:16:50.494Z,47.63
2022-12-15T09:17:52.469Z,47.56
2022-12-15T09:18:54.275Z,47.47
2022-12-15T09:19:56.075Z,47.49
2022-12-15T09:20:58.007Z,47.51
2022-12-15T09:21:59.874Z,47.49
2022-12-15T09:23:01.692Z,47.50
2022-12-15T09:24:03.502Z,47.45
2022-12-15T09:25:05.329Z,47.41
2022-12-15T09:26:07.934Z,47.38
2022-12-15T09:27:09.843Z,47.32
2022-12-15T09:28:11.682Z,47.28
2022-12-15T09:29:13.483Z,47.28
2022-12-15T09:30:15.297Z,47.26
2022-12-15T09:31:17.159Z,47.25
2022-12-15T09:32:19.117Z,47.22
2022-12-15T09:33:20.926Z,47.13
2022-12-15T09:34:22.773Z,47.10
2022-12-15T09:35:24.606Z,46.98
2022-12-15T09:36:26.639Z,46.89
2022-12-15T09:37:28.472Z,46.88
2022-12-15T09:38:30.293Z,46.85
2022-12-15T09:39:32.135Z,46.91
2022-12-15T09:40:33.923Z,46.91
2022-12-15T09:41:35.802Z,46.90
2022-12-15T09:42:37.653Z,46.86
2022-12-15T09:43:46.057Z,46.88
2022-12-15T09:44:43.108Z,46.88
2022-12-15T09:45:44.995Z,46.91
2022-12-15T09:46:50.192Z,46.98
2022-12-15T09:47:50.463Z,46.97
2022-12-15T09:48:52.308Z,46.88
2022-12-15T09:49:54.173Z,46.86
2022-12-15T09:50:56.318Z,46.87
2022-12-15T09:51:58.187Z,46.85
2022-12-15T09:53:00.029Z,46.86
2022-12-15T09:54:02.189Z,46.87
2022-12-15T09:55:04.223Z,46.75
2022-12-15T09:56:06.267Z,46.61
2022-12-15T09:57:08.336Z,46.48
2022-12-15T09:58:11.283Z,46.50
2022-12-15T09:59:13.257Z,46.51
2022-12-15T10:00:15.043Z,46.49
2022-12-15T10:01:16.846Z,46.48
2022-12-15T10:02:18.738Z,46.49
2022-12-15T10:03:20.977Z,46.54
2022-12-15T10:04:22.989Z,46.58
2022-12-15T10:05:38.117Z,46.53
2022-12-15T10:06:33.122Z,46.47
2022-12-15T10:07:32.135Z,46.51
2022-12-15T10:08:33.986Z,46.52
2022-12-15T10:09:35.840Z,46.52
2022-12-15T10:10:37.748Z,46.47
2022-12-15T10:11:39.573Z,46.48
2022-12-15T10:12:50.080Z,46.45
2022-12-15T10:13:45.118Z,46.42
2022-12-15T10:14:49.996Z,46.36
2022-12-15T10:15:50.692Z,46.33
2022-12-15T10:16:52.477Z,46.38
2022-12-15T10:17:54.297Z,46.47
2022-12-15T10:19:01.054Z,46.42
2022-12-15T10:19:59.994Z,46.36
2022-12-15T10:21:01.807Z,46.39
2022-12-15T10:22:03.659Z,46.44
2022-12-15T10:23:05.541Z,46.39
2022-12-15T10:24:07.344Z,46.39
2022-12-15T10:25:10.743Z,46.52
2022-12-15T10:26:13.256Z,46.61
2022-12-15T10:27:15.056Z,46.75
2022-12-15T10:28:16.941Z,46.71
2022-12-15T10:29:18.823Z,46.76
2022-12-15T10:30:20.702Z,46.80
2022-12-15T10:31:22.617Z,46.74
2022-12-15T10:32:24.458Z,46.79
2022-12-15T10:33:26.302Z,46.85
2022-12-15T10:34:28.277Z,46.85
2022-12-15T10:35:30.230Z,46.75
2022-12-15T10:36:32.048Z,46.75
2022-12-15T10:37:33.886Z,46.77
2022-12-15T10:38:35.704Z,46.86
2022-12-15T10:39:37.590Z,46.94
2022-12-15T10:40:39.518Z,47.02
2022-12-15T10:41:41.415Z,47.06
2022-12-15T10:42:43.249Z,47.07
2022-12-15T10:43:45.098Z,47.06
2022-12-15T10:44:50.602Z,47.05
2022-12-15T10:45:52.582Z,46.93
2022-12-15T10:46:54.388Z,46.97
2022-12-15T10:47:56.493Z,46.99
2022-12-15T10:48:58.322Z,47.06
2022-12-15T10:50:00.383Z,47.21
2022-12-15T10:51:02.180Z,47.22
2022-12-15T10:52:03.989Z,47.21
2022-12-15T10:53:05.814Z,47.21
2022-12-15T10:54:07.693Z,47.24
2022-12-15T10:55:10.696Z,47.28
2022-12-15T10:56:13.433Z,47.20
2022-12-15T10:57:15.240Z,47.25
2022-12-15T10:58:17.075Z,47.30
2022-12-15T10:59:18.926Z,47.31
2022-12-15T11:00:20.832Z,47.33
2022-12-15T11:01:22.853Z,47.34
2022-12-15T11:02:25.673Z,47.44
2022-12-15T11:03:28.301Z,47.59
2022-12-15T11:04:30.429Z,47.55
2022-12-15T11:05:32.393Z,47.62
2022-12-15T11:06:34.228Z,47.63
2022-12-15T11:07:36.057Z,47.64
2022-12-15T11:08:37.892Z,47.63
2022-12-15T11:09:39.724Z,47.66
2022-12-15T11:10:44.095Z,47.66
2022-12-15T11:11:45.963Z,47.63
2022-12-15T11:12:48.753Z,47.53
2022-12-15T11:13:52.250Z,47.55
2022-12-15T11:14:54.204Z,47.59
2022-12-15T11:15:56.046Z,47.54
2022-12-15T11:16:57.870Z,47.64
2022-12-15T11:17:59.700Z,47.66
2022-12-15T11:19:01.522Z,47.73
2022-12-15T11:20:03.731Z,47.74
2022-12-15T11:21:05.641Z,47.76
2022-12-15T11:22:07.490Z,47.74
2022-12-15T11:23:09.305Z,47.76
2022-12-15T11:24:11.240Z,47.78
2022-12-15T11:25:13.077Z,47.72
2022-12-15T11:26:15.041Z,47.76
2022-12-15T11:27:16.838Z,47.77
2022-12-15T11:28:18.667Z,47.74
2022-12-15T11:29:20.475Z,47.79
2022-12-15T11:30:22.485Z,47.82
2022-12-15T11:31:24.339Z,47.85
2022-12-15T11:32:26.210Z,47.87
2022-12-15T11:33:28.288Z,47.96
2022-12-15T11:34:30.531Z,47.92
2022-12-15T11:35:32.355Z,47.91
2022-12-15T11:36:34.271Z,47.99
2022-12-15T11:37:36.828Z,47.99
2022-12-15T11:38:38.951Z,48.04
2022-12-15T11:39:40.752Z,48.09
2022-12-15T11:40:42.575Z,48.14
2022-12-15T11:41:44.466Z,48.11
2022-12-15T11:42:46.982Z,48.16
2022-12-15T11:43:50.733Z,48.18
2022-12-15T11:44:52.537Z,48.20
2022-12-15T11:45:54.424Z,48.28
2022-12-15T11:46:56.793Z,48.34
2022-12-15T11:47:58.593Z,48.32
2022-12-15T11:49:00.436Z,48.36
2022-12-15T11:50:02.319Z,48.36
2022-12-15T11:51:04.153Z,48.45
2022-12-15T11:52:06.074Z,48.46
2022-12-15T11:53:07.890Z,48.50
2022-12-15T11:54:09.955Z,48.55
2022-12-15T11:55:11.768Z,48.46
2022-12-15T11:56:13.798Z,48.58
2022-12-15T11:57:15.652Z,48.48
2022-12-15T11:58:17.468Z,48.35
2022-12-15T11:59:19.273Z,48.35
2022-12-15T12:00:21.136Z,48.38
2022-12-15T12:01:23.018Z,48.30
2022-12-15T12:02:25.004Z,48.33
2022-12-15T12:03:26.970Z,48.34
2022-12-15T12:04:28.856Z,48.35
2022-12-15T12:05:30.661Z,48.31
2022-12-15T12:06:32.485Z,48.32
2022-12-15T12:07:40.099Z,48.34
2022-12-15T12:08:37.951Z,48.37
2022-12-15T12:09:39.774Z,48.41
2022-12-15T12:10:41.670Z,48.46
2022-12-15T12:11:43.551Z,48.50
2022-12-15T12:12:45.493Z,48.50
2022-12-15T12:13:47.327Z,48.50
2022-12-15T12:14:50.976Z,48.58
2022-12-15T12:15:52.796Z,48.59
2022-12-15T12:16:54.947Z,48.54
2022-12-15T12:17:56.826Z,48.58
2022-12-15T12:18:58.689Z,48.58
2022-12-15T12:20:00.457Z,48.57
2022-12-15T12:21:02.287Z,48.60
2022-12-15T12:22:04.104Z,48.65
2022-12-15T12:23:05.961Z,48.69
2022-12-15T12:24:07.800Z,48.69
2022-12-15T12:25:09.729Z,48.68
2022-12-15T12:26:12.073Z,48.63
2022-12-15T12:27:13.882Z,48.63
2022-12-15T12:28:15.865Z,48.71
2022-12-15T12:29:17.717Z,48.74
2022-12-15T12:30:19.864Z,48.80
2022-12-15T12:31:21.689Z,48.71
2022-12-15T12:32:23.581Z,48.73
2022-12-15T12:33:25.443Z,48.71
2022-12-15T12:34:27.254Z,48.73
2022-12-15T12:35:30.368Z,48.78
2022-12-15T12:36:32.754Z,48.82
2022-12-15T12:37:34.566Z,48.86
2022-12-15T12:38:36.449Z,48.86
2022-12-15T12:39:38.293Z,48.84
2022-12-15T12:40:40.357Z,48.81
2022-12-15T12:41:42.156Z,48.76
2022-12-15T12:42:43.953Z,48.78
2022-12-15T12:43:45.817Z,48.73
2022-12-15T12:44:49.431Z,48.70
2022-12-15T12:45:52.089Z,48.71
2022-12-15T12:46:53.969Z,48.77
2022-12-15T12:47:55.850Z,48.57
2022-12-15T12:48:57.739Z,48.73
2022-12-15T12:49:59.555Z,48.76
2022-12-15T12:51:01.369Z,48.75
2022-12-15T12:52:03.204Z,48.72
2022-12-15T12:53:05.007Z,48.74
2022-12-15T12:54:06.906Z,48.70
2022-12-15T12:55:12.784Z,48.72
2022-12-15T12:56:12.542Z,48.72
2022-12-15T12:57:14.342Z,48.68
2022-12-15T12:58:16.166Z,48.60
2022-12-15T12:59:18.037Z,48.63
2022-12-15T13:00:19.977Z,48.61
2022-12-15T13:01:22.070Z,48.64
2022-12-15T13:02:24.160Z,48.62
2022-12-15T13:03:26.117Z,48.67
2022-12-15T13:04:27.997Z,48.72
2022-12-15T13:05:29.821Z,48.73
2022-12-15T13:06:31.832Z,48.71
2022-12-15T13:07:33.657Z,48.76
2022-12-15T13:08:35.494Z,48.82
2022-12-15T13:09:37.367Z,48.84
2022-12-15T13:10:39.491Z,48.91
2022-12-15T13:11:41.338Z,48.95
2022-12-15T13:12:51.644Z,48.85
2022-12-15T13:13:51.309Z,48.87
2022-12-15T13:14:51.795Z,48.88
2022-12-15T13:15:53.832Z,48.85
2022-12-15T13:18:01.623Z,48.91
2022-12-15T13:19:03.623Z,48.93
2022-12-15T13:20:05.854Z,48.98
2022-12-15T13:21:07.688Z,48.97